To NAV CANADA Home Page Login to a new session Search on AWWS site Feedback and Comments Disclaimer Vers la page française équivalente Tips FAQ What's new on the site To the Forecasts and Observations / NOTAM section To "File a Flight Plan" website Publications and other links Update of the User's profile FIC Telephone Numbers My Weather Data Folder Route Weather Data Regional Weather Data Local Weather Data To the Forecasts and Observations / NOTAM section
Request Generated 01/21/2017 at 02:02:35 UTC . Weather information available at that time is displayed.

METAR/TAF

LA GRANDE-4/QC    (show WxCam)

METAR CYAH 210200Z AUTO 23007KT 3SM -FZRA BR BKN014 OVC019 M02/M03
A2962 RMK ICG SLP051=
SPECI CYAH 210148Z AUTO 22007KT 3SM -FZRA BR BKN014 OVC021 M02/M03
A2962 RMK ICG SLP051=
SPECI CYAH 210142Z AUTO 22008KT 3SM -FZRA -SN BKN014 OVC021 M02/M03
A2962 RMK ICG SLP051=
SPECI CYAH 210137Z AUTO 22008KT 3SM -SN BKN014 OVC021 M02/M03 A2962
RMK ICG SLP052=
SPECI CYAH 210128Z AUTO 22009KT 3SM -SN BKN014 OVC021 M02/M03 A2962
RMK SLP052=
SPECI CYAH 210126Z AUTO 22008KT 2 1/2SM -SN BKN014 OVC021 M02/M03
A2962 RMK SLP052=
METAR CYAH 210100Z AUTO 21009KT 2 1/4SM -SN OVC016 M02/M03 A2962 RMK
VIS VRB 1 3/4-3 SLP052=
SPECI CYAH 210058Z AUTO 20009KT 2 1/4SM -SN OVC016 M02/M03 A2962 RMK
VIS VRB 1 3/4-3 SLP051=
SPECI CYAH 210055Z AUTO 21010KT 2 1/2SM -SN OVC016 M02/M03 A2962 RMK
SLP051=
SPECI CYAH 210045Z AUTO 21010KT 5SM -SN OVC016 M02/M03 A2961 RMK
SLP050=
SPECI CYAH 210023Z AUTO 20011KT 9SM -SN OVC018 M02/M03 A2961 RMK
SLP050=
SPECI CYAH 210009Z AUTO 20011KT 9SM OVC018 M02/M03 A2962 RMK SLP051=
METAR CYAH 210000Z AUTO 20012KT 9SM -SN OVC020 M02/M03 A2961 RMK
SLP050=

*** REMARK        : Forecast period has ended; this was the last TAF issued
*** REMARQUE : La période de prévision est échue; ceci était le dernier TAF qui a été émis
TAF AMD CYAH 202104Z 2021/2022 20010KT 2SM -FZRA BR OVC007 TEMPO
2021/2022 6SM -SN OVC010
RMK FCST BASED ON AUTO OBS. NXT FCST WILL BE ISSUED AT 211145Z=
Your time UTC time
Weather data provided by Environment Canada and NAV CANADA